createdAt,value
2022-10-06T00:00:05.837Z,19.20
2022-10-06T00:02:07.498Z,19.20
2022-10-06T00:04:09.992Z,19.20
2022-10-06T00:06:12.850Z,19.20
2022-10-06T00:08:14.489Z,19.20
2022-10-06T00:10:16.224Z,19.20
2022-10-06T00:12:17.838Z,19.20
2022-10-06T00:14:19.425Z,19.10
2022-10-06T00:16:24.394Z,19.10
2022-10-06T00:18:27.243Z,19.10
2022-10-06T00:20:29.634Z,19.10
2022-10-06T00:22:38.262Z,19.10
2022-10-06T00:24:39.878Z,19.10
2022-10-06T00:26:41.497Z,19.10
2022-10-06T00:28:44.096Z,19.10
2022-10-06T00:30:46.632Z,19.00
2022-10-06T00:32:54.643Z,19.00
2022-10-06T00:34:58.532Z,19.00
2022-10-06T00:37:00.124Z,19.10
2022-10-06T00:39:01.700Z,19.00
2022-10-06T00:41:03.326Z,19.00
2022-10-06T00:43:06.195Z,19.00
2022-10-06T00:45:08.077Z,19.00
2022-10-06T00:47:09.802Z,19.00
2022-10-06T00:49:17.534Z,19.00
2022-10-06T00:51:19.932Z,19.00
2022-10-06T00:53:22.657Z,19.00
2022-10-06T00:55:24.342Z,19.00
2022-10-06T00:57:26.637Z,19.00
2022-10-06T00:59:28.252Z,19.00
2022-10-06T01:01:30.591Z,19.00
2022-10-06T01:03:35.131Z,19.00
2022-10-06T01:05:41.349Z,18.90
2022-10-06T01:07:42.955Z,18.90
2022-10-06T01:09:44.693Z,19.00
2022-10-06T01:11:49.692Z,18.90
2022-10-06T01:13:51.287Z,19.00
2022-10-06T01:16:28.447Z,18.90
2022-10-06T01:18:31.534Z,18.90
2022-10-06T01:20:34.343Z,18.90
2022-10-06T01:22:37.302Z,18.90
2022-10-06T01:24:39.132Z,18.90
2022-10-06T01:26:42.177Z,18.90
2022-10-06T01:28:43.954Z,18.80
2022-10-06T01:30:53.109Z,18.90
2022-10-06T01:32:56.529Z,18.90
2022-10-06T01:34:58.409Z,18.90
2022-10-06T01:37:00.250Z,18.80
2022-10-06T01:39:02.395Z,18.80
2022-10-06T01:41:04.026Z,18.80
2022-10-06T01:43:05.729Z,18.80
2022-10-06T01:45:07.669Z,18.80
2022-10-06T01:47:10.053Z,18.80
2022-10-06T01:49:11.669Z,18.80
2022-10-06T01:51:16.322Z,18.80
2022-10-06T01:53:18.063Z,18.80
2022-10-06T01:55:19.787Z,18.80
2022-10-06T01:57:21.427Z,18.80
2022-10-06T01:59:24.474Z,18.80
2022-10-06T02:01:26.556Z,18.80
2022-10-06T02:03:29.202Z,18.80
2022-10-06T02:05:30.821Z,18.80
2022-10-06T02:07:32.473Z,18.80
2022-10-06T02:09:34.153Z,18.90
2022-10-06T02:11:38.921Z,18.90
2022-10-06T02:13:40.926Z,18.90
2022-10-06T02:15:42.713Z,19.00
2022-10-06T02:17:44.369Z,19.00
2022-10-06T02:19:45.983Z,19.00
2022-10-06T02:21:47.597Z,19.00
2022-10-06T02:23:49.511Z,19.00
2022-10-06T02:25:57.846Z,19.00
2022-10-06T02:28:01.122Z,19.00
2022-10-06T02:30:02.941Z,19.10
2022-10-06T02:32:05.120Z,19.10
2022-10-06T02:34:06.734Z,19.10
2022-10-06T02:36:09.847Z,19.10
2022-10-06T02:38:12.568Z,19.10
2022-10-06T02:40:16.245Z,19.10
2022-10-06T02:42:19.693Z,19.20
2022-10-06T02:44:21.403Z,19.20
2022-10-06T02:46:23.993Z,19.20
2022-10-06T02:48:27.683Z,19.20
2022-10-06T02:50:29.488Z,19.20
2022-10-06T02:52:33.101Z,19.20
2022-10-06T02:54:36.183Z,19.20
2022-10-06T02:56:37.888Z,19.30
2022-10-06T02:58:39.867Z,19.30
2022-10-06T03:00:44.382Z,19.30
2022-10-06T03:02:46.233Z,19.30
2022-10-06T03:04:48.024Z,19.30
2022-10-06T03:06:49.732Z,19.40
2022-10-06T03:08:59.328Z,19.30
2022-10-06T03:11:02.096Z,19.30
2022-10-06T03:13:03.794Z,19.40
2022-10-06T03:15:05.730Z,19.40
2022-10-06T03:17:10.721Z,19.40
2022-10-06T03:19:18.479Z,19.40
2022-10-06T03:21:22.476Z,19.40
2022-10-06T03:23:24.110Z,19.40
2022-10-06T03:25:25.823Z,19.50
2022-10-06T03:27:27.695Z,19.40
2022-10-06T03:29:35.015Z,19.40
2022-10-06T03:31:38.460Z,19.40
2022-10-06T03:33:40.722Z,19.40
2022-10-06T03:35:42.624Z,19.40
2022-10-06T03:37:44.348Z,19.40
2022-10-06T03:39:46.100Z,19.40
2022-10-06T03:41:48.245Z,19.40
2022-10-06T03:43:50.396Z,19.50
2022-10-06T03:45:55.810Z,19.50
2022-10-06T03:47:59.179Z,19.50
2022-10-06T03:50:01.200Z,19.50
2022-10-06T03:52:04.063Z,19.50
2022-10-06T03:54:10.844Z,19.50
2022-10-06T03:56:14.685Z,19.50
2022-10-06T03:58:16.765Z,19.50
2022-10-06T04:00:18.479Z,19.50
2022-10-06T04:02:21.405Z,19.50
2022-10-06T04:04:23.029Z,19.50
2022-10-06T04:06:29.493Z,19.50
2022-10-06T04:08:33.277Z,19.50
2022-10-06T04:10:35.065Z,19.50
2022-10-06T04:12:36.807Z,19.50
2022-10-06T04:14:38.386Z,19.50
2022-10-06T04:16:48.343Z,19.50
2022-10-06T04:18:56.164Z,19.50
2022-10-06T04:21:00.625Z,19.50
2022-10-06T04:23:02.424Z,19.50
2022-10-06T04:25:04.271Z,19.50
2022-10-06T04:27:24.713Z,19.50
2022-10-06T04:29:31.795Z,19.50
2022-10-06T04:31:37.091Z,19.50
2022-10-06T04:33:40.139Z,19.50
2022-10-06T04:35:41.769Z,19.50
2022-10-06T04:37:43.471Z,19.40
2022-10-06T04:39:45.578Z,19.50
2022-10-06T04:41:47.633Z,19.50
2022-10-06T04:44:07.769Z,19.50
2022-10-06T04:46:37.786Z,19.40
2022-10-06T04:48:32.882Z,19.50
2022-10-06T04:50:34.556Z,19.40
2022-10-06T04:52:42.157Z,19.50
2022-10-06T04:54:43.811Z,19.50
2022-10-06T04:56:45.430Z,19.50
2022-10-06T04:58:48.354Z,19.50
2022-10-06T05:00:50.273Z,19.40
2022-10-06T05:02:57.841Z,19.40
2022-10-06T05:04:59.464Z,19.40
2022-10-06T05:07:01.929Z,19.50
2022-10-06T05:09:04.937Z,19.40
2022-10-06T05:11:11.651Z,19.40
2022-10-06T05:13:16.993Z,19.40
2022-10-06T05:15:18.660Z,19.40
2022-10-06T05:17:20.310Z,19.40
2022-10-06T05:19:22.452Z,19.40
2022-10-06T05:21:25.833Z,19.30
2022-10-06T05:23:28.424Z,19.30
2022-10-06T05:25:30.163Z,19.30
2022-10-06T05:27:31.767Z,19.40
2022-10-06T05:29:34.211Z,19.30
2022-10-06T05:31:42.986Z,19.30
2022-10-06T05:33:45.185Z,19.30
2022-10-06T05:35:57.225Z,19.30
2022-10-06T05:37:59.038Z,19.20
2022-10-06T05:40:01.101Z,19.20
2022-10-06T05:42:03.278Z,19.30
2022-10-06T05:44:05.224Z,19.20
2022-10-06T05:46:12.522Z,19.20
2022-10-06T05:48:14.374Z,19.20
2022-10-06T05:50:16.124Z,19.20
2022-10-06T05:52:17.801Z,19.20
2022-10-06T05:54:19.407Z,19.20
2022-10-06T05:56:22.288Z,19.20
2022-10-06T05:58:23.957Z,19.20
2022-10-06T06:00:25.599Z,19.20
2022-10-06T06:02:27.410Z,19.20
2022-10-06T06:04:29.040Z,19.20
2022-10-06T06:06:35.920Z,19.20
2022-10-06T06:08:40.453Z,19.10
2022-10-06T06:10:42.113Z,19.10
2022-10-06T06:12:44.097Z,19.10
2022-10-06T06:15:21.359Z,19.10
2022-10-06T06:17:33.264Z,19.10
2022-10-06T06:19:36.760Z,19.10
2022-10-06T06:21:38.799Z,19.10
2022-10-06T06:23:42.063Z,19.10
2022-10-06T06:25:44.190Z,19.10
2022-10-06T06:27:46.006Z,19.20
2022-10-06T06:29:49.867Z,19.10
2022-10-06T06:31:51.804Z,19.10
2022-10-06T06:33:54.816Z,19.10
2022-10-06T06:36:03.287Z,19.10
2022-10-06T06:38:11.214Z,19.10
2022-10-06T06:40:13.406Z,19.10
2022-10-06T06:42:15.929Z,19.10
2022-10-06T06:44:17.737Z,19.10
2022-10-06T06:46:28.018Z,19.10
2022-10-06T06:48:37.801Z,19.10
2022-10-06T06:50:39.591Z,19.10
2022-10-06T06:52:43.818Z,19.10
2022-10-06T06:54:49.831Z,19.10
2022-10-06T06:56:52.794Z,19.10
2022-10-06T06:58:55.395Z,19.10
2022-10-06T07:01:04.992Z,19.10
2022-10-06T07:03:06.687Z,19.10
2022-10-06T07:05:11.452Z,19.10
2022-10-06T07:07:13.826Z,19.10
2022-10-06T07:09:16.225Z,19.10
2022-10-06T07:11:19.833Z,19.20
2022-10-06T07:13:21.522Z,19.20
2022-10-06T07:15:41.668Z,19.20
2022-10-06T07:18:02.554Z,19.20
2022-10-06T07:20:23.771Z,19.20
2022-10-06T07:22:46.238Z,19.20
2022-10-06T07:25:11.686Z,19.20
2022-10-06T07:27:20.590Z,19.20
2022-10-06T07:29:22.266Z,19.20
2022-10-06T07:31:23.963Z,19.30
2022-10-06T07:33:28.220Z,19.20
2022-10-06T07:35:30.842Z,19.20
2022-10-06T07:37:34.852Z,19.20
2022-10-06T07:39:36.528Z,19.20
2022-10-06T07:41:38.801Z,19.30
2022-10-06T07:43:40.460Z,19.30
2022-10-06T07:45:42.452Z,19.30
2022-10-06T07:48:11.252Z,19.40
2022-10-06T07:50:13.132Z,19.40
2022-10-06T07:52:15.075Z,19.40
2022-10-06T07:54:16.890Z,19.40
2022-10-06T07:56:31.645Z,19.40
2022-10-06T07:58:34.380Z,19.40
2022-10-06T08:00:36.066Z,19.40
2022-10-06T08:02:39.273Z,19.40
2022-10-06T08:04:40.978Z,19.40
2022-10-06T08:06:42.627Z,19.40
2022-10-06T08:08:47.061Z,19.40
2022-10-06T08:10:54.615Z,19.40
2022-10-06T08:12:56.335Z,19.40
2022-10-06T08:15:00.619Z,19.40
2022-10-06T08:17:04.392Z,19.40
2022-10-06T08:19:05.983Z,19.40
2022-10-06T08:21:14.558Z,19.40
2022-10-06T08:23:16.562Z,19.40
2022-10-06T08:25:18.201Z,19.50
2022-10-06T08:27:19.802Z,19.40
2022-10-06T08:29:22.156Z,19.50
2022-10-06T08:31:24.044Z,19.50
2022-10-06T08:33:26.908Z,19.50
2022-10-06T08:35:30.590Z,19.40
2022-10-06T08:37:32.310Z,19.40
2022-10-06T08:39:33.970Z,19.40
2022-10-06T08:41:40.353Z,19.40
2022-10-06T08:43:42.754Z,19.40
2022-10-06T08:45:45.771Z,19.40
2022-10-06T08:47:51.288Z,19.40
2022-10-06T08:49:55.216Z,19.40
2022-10-06T08:52:03.777Z,19.40
2022-10-06T08:54:10.625Z,19.50
2022-10-06T08:56:18.083Z,19.50
2022-10-06T08:58:33.378Z,19.50
2022-10-06T09:00:37.360Z,19.50
2022-10-06T09:02:42.482Z,19.50
2022-10-06T09:04:44.161Z,19.50
2022-10-06T09:07:05.549Z,19.60
2022-10-06T09:09:29.472Z,19.60
2022-10-06T09:11:31.036Z,19.60
2022-10-06T09:13:36.224Z,19.60
2022-10-06T09:15:50.861Z,19.70
2022-10-06T09:18:10.765Z,19.70
2022-10-06T09:20:38.436Z,19.70
2022-10-06T09:22:40.186Z,19.70
2022-10-06T09:24:47.138Z,19.80
2022-10-06T09:26:50.736Z,19.80
2022-10-06T09:28:52.573Z,19.80
2022-10-06T09:30:55.553Z,19.80
2022-10-06T09:32:59.245Z,19.90
2022-10-06T09:35:00.921Z,19.80
2022-10-06T09:37:04.860Z,19.90
2022-10-06T09:39:06.446Z,19.90
2022-10-06T09:41:08.184Z,19.90
2022-10-06T09:43:36.068Z,20.00
2022-10-06T09:45:37.691Z,20.00
2022-10-06T09:47:46.255Z,20.10
2022-10-06T09:50:06.488Z,20.10
2022-10-06T09:52:11.745Z,20.20
2022-10-06T09:54:14.764Z,20.20
2022-10-06T09:56:19.286Z,20.30
2022-10-06T09:58:34.580Z,20.30
2022-10-06T10:00:38.867Z,20.30
2022-10-06T10:02:40.979Z,20.30
2022-10-06T10:04:44.381Z,20.40
2022-10-06T10:06:48.081Z,20.40
2022-10-06T10:08:49.714Z,20.40
2022-10-06T10:11:29.768Z,20.40
2022-10-06T10:13:41.492Z,20.40
2022-10-06T10:15:55.378Z,20.50
2022-10-06T10:17:59.248Z,20.50
2022-10-06T10:20:02.623Z,20.60
2022-10-06T10:22:04.269Z,20.60
2022-10-06T10:24:07.239Z,20.60
2022-10-06T10:26:17.660Z,20.60
2022-10-06T10:28:22.400Z,20.60
2022-10-06T10:30:24.116Z,20.70
2022-10-06T10:32:54.794Z,20.80
2022-10-06T10:35:00.888Z,20.80
2022-10-06T10:37:05.634Z,20.90
2022-10-06T10:39:12.512Z,20.90
2022-10-06T10:41:20.803Z,21.00
2022-10-06T10:43:22.382Z,21.00
2022-10-06T10:45:32.197Z,21.10
2022-10-06T10:47:34.181Z,21.10
2022-10-06T10:49:35.844Z,21.10
2022-10-06T10:51:37.493Z,21.20
2022-10-06T10:53:54.178Z,21.20
2022-10-06T10:55:56.631Z,21.30
2022-10-06T10:58:01.334Z,21.40
2022-10-06T11:00:07.482Z,21.50
2022-10-06T11:02:13.663Z,21.50
2022-10-06T11:04:15.470Z,21.60
2022-10-06T11:06:25.347Z,21.60
2022-10-06T11:08:27.001Z,21.70
2022-10-06T11:10:35.007Z,21.70
2022-10-06T11:12:49.623Z,21.80
2022-10-06T11:14:51.204Z,21.80
2022-10-06T11:17:03.664Z,21.80
2022-10-06T11:19:30.534Z,21.80
2022-10-06T11:21:51.031Z,21.80
2022-10-06T11:23:57.254Z,21.80
2022-10-06T11:26:17.873Z,21.80
2022-10-06T11:28:34.263Z,21.80
2022-10-06T11:30:40.039Z,21.70
2022-10-06T11:32:44.393Z,21.70
2022-10-06T11:34:48.090Z,21.70
2022-10-06T11:36:58.350Z,21.70
2022-10-06T11:39:20.429Z,21.70
2022-10-06T11:41:42.387Z,21.70
2022-10-06T11:44:00.414Z,21.80
2022-10-06T11:46:26.538Z,21.80
2022-10-06T11:48:30.952Z,21.90
2022-10-06T11:50:33.169Z,21.90
2022-10-06T11:52:35.394Z,22.00
2022-10-06T11:54:40.037Z,22.00
2022-10-06T11:56:41.664Z,22.00
2022-10-06T11:58:55.579Z,22.10
2022-10-06T12:00:57.211Z,22.10
2022-10-06T12:03:18.814Z,22.20
2022-10-06T12:05:54.684Z,22.30
2022-10-06T12:07:54.551Z,22.30
2022-10-06T12:10:16.100Z,22.40
2022-10-06T12:12:18.824Z,22.40
2022-10-06T12:17:10.599Z,22.50
2022-10-06T12:19:27.532Z,22.60
2022-10-06T12:21:47.866Z,22.60
2022-10-06T12:24:02.041Z,22.70
2022-10-06T12:26:22.421Z,22.70
2022-10-06T12:28:39.066Z,22.80
2022-10-06T12:30:59.442Z,22.80
2022-10-06T12:33:05.596Z,22.80
2022-10-06T12:35:16.322Z,22.90
2022-10-06T12:37:32.744Z,22.90
2022-10-06T12:39:34.336Z,22.90
2022-10-06T12:41:56.279Z,22.90
2022-10-06T12:43:58.045Z,22.90
2022-10-06T12:46:04.742Z,23.00
2022-10-06T12:48:08.525Z,23.00
2022-10-06T12:50:16.409Z,23.00
2022-10-06T12:52:23.911Z,23.00
2022-10-06T12:54:43.539Z,23.00
2022-10-06T12:56:56.701Z,23.10
2022-10-06T12:58:58.641Z,23.10
2022-10-06T13:01:05.258Z,23.10
2022-10-06T13:03:09.012Z,23.20
2022-10-06T13:05:11.351Z,23.20
2022-10-06T13:07:23.897Z,23.20
2022-10-06T13:09:25.518Z,23.20
2022-10-06T13:11:28.035Z,23.30
2022-10-06T13:13:30.822Z,23.30
2022-10-06T13:15:34.921Z,23.40
2022-10-06T13:17:40.779Z,23.40
2022-10-06T13:19:46.455Z,23.40
2022-10-06T13:21:48.093Z,23.40
2022-10-06T13:23:50.688Z,23.50
2022-10-06T13:25:57.666Z,23.50
2022-10-06T13:28:02.198Z,23.50
2022-10-06T13:30:38.362Z,23.60
2022-10-06T13:32:40.498Z,23.70
2022-10-06T13:34:43.221Z,23.70
2022-10-06T13:36:46.945Z,23.80
2022-10-06T13:38:49.077Z,23.80
2022-10-06T13:41:09.101Z,23.80
2022-10-06T13:43:15.707Z,23.80
2022-10-06T13:45:17.384Z,23.90
2022-10-06T13:47:20.027Z,23.90
2022-10-06T13:49:31.107Z,23.90
2022-10-06T13:51:33.127Z,24.00
2022-10-06T13:53:34.772Z,24.00
2022-10-06T13:55:36.460Z,24.00
2022-10-06T13:57:48.617Z,24.10
2022-10-06T14:00:01.902Z,24.10
2022-10-06T14:02:19.233Z,24.10
2022-10-06T14:04:20.917Z,24.10
2022-10-06T14:06:24.891Z,24.10
2022-10-06T14:08:27.537Z,24.20
2022-10-06T14:10:43.064Z,24.20
2022-10-06T14:12:45.616Z,24.20
2022-10-06T14:14:49.197Z,24.20
2022-10-06T14:16:52.739Z,24.20
2022-10-06T14:21:17.574Z,24.20
2022-10-06T14:23:32.733Z,24.20
2022-10-06T14:25:34.568Z,24.20
2022-10-06T14:27:36.191Z,24.30
2022-10-06T14:29:37.977Z,24.30
2022-10-06T14:31:39.865Z,24.30
2022-10-06T14:33:42.068Z,24.30
2022-10-06T14:35:43.847Z,24.30
2022-10-06T14:37:45.909Z,24.30
2022-10-06T14:39:50.203Z,24.40
2022-10-06T14:41:51.850Z,24.40
2022-10-06T14:43:57.504Z,24.40
2022-10-06T14:46:02.597Z,24.40
2022-10-06T14:48:07.198Z,24.40
2022-10-06T14:50:08.972Z,24.40
2022-10-06T14:52:12.016Z,24.40
2022-10-06T14:54:14.075Z,24.50
2022-10-06T14:56:16.463Z,24.50
2022-10-06T14:58:18.108Z,24.50
2022-10-06T15:00:20.775Z,24.50
2022-10-06T15:02:22.822Z,24.50
2022-10-06T15:04:25.072Z,24.50
2022-10-06T15:06:45.111Z,24.50
2022-10-06T15:08:51.846Z,24.50
2022-10-06T15:10:53.578Z,24.40
2022-10-06T15:12:56.871Z,24.40
2022-10-06T15:14:58.713Z,24.40
2022-10-06T15:17:00.536Z,24.30
2022-10-06T15:19:05.407Z,24.30
2022-10-06T15:21:07.127Z,24.30
2022-10-06T15:23:09.561Z,24.20
2022-10-06T15:25:31.266Z,24.10
2022-10-06T15:27:51.477Z,24.10
2022-10-06T15:29:53.167Z,24.00
2022-10-06T15:31:55.151Z,23.80
2022-10-06T15:33:56.911Z,23.70
2022-10-06T15:36:13.842Z,23.70
2022-10-06T15:38:15.445Z,23.50
2022-10-06T15:40:17.969Z,23.40
2022-10-06T15:42:23.921Z,23.30
2022-10-06T15:44:25.940Z,23.10
2022-10-06T15:46:27.724Z,23.10
2022-10-06T15:48:29.681Z,22.90
2022-10-06T15:50:31.269Z,22.80
2022-10-06T15:52:33.895Z,22.70
2022-10-06T15:54:37.877Z,22.50
2022-10-06T15:56:39.712Z,22.50
2022-10-06T15:58:41.312Z,22.40
2022-10-06T16:00:44.071Z,22.30
2022-10-06T16:02:45.954Z,22.10
2022-10-06T16:05:04.051Z,22.00
2022-10-06T16:07:10.260Z,21.90
2022-10-06T16:09:12.571Z,21.80
2022-10-06T16:11:14.180Z,21.70
2022-10-06T16:13:15.798Z,21.60
2022-10-06T16:15:17.597Z,21.60
2022-10-06T16:17:19.209Z,21.40
2022-10-06T16:19:20.835Z,21.30
2022-10-06T16:21:22.488Z,21.20
2022-10-06T16:23:24.160Z,21.10
2022-10-06T16:25:25.789Z,21.00
2022-10-06T16:27:32.623Z,20.90
2022-10-06T16:29:35.003Z,20.80
2022-10-06T16:31:36.715Z,20.70
2022-10-06T16:33:38.392Z,20.60
2022-10-06T16:35:39.970Z,20.50
2022-10-06T16:37:48.906Z,20.30
2022-10-06T16:39:50.539Z,20.30
2022-10-06T16:41:52.226Z,20.30
2022-10-06T16:43:54.011Z,20.10
2022-10-06T16:46:02.159Z,20.00
2022-10-06T16:48:04.334Z,19.90
2022-10-06T16:50:06.258Z,19.80
2022-10-06T16:52:07.954Z,19.70
2022-10-06T16:54:10.729Z,19.70
2022-10-06T16:56:13.990Z,19.60
2022-10-06T16:58:15.593Z,19.60
2022-10-06T17:00:17.231Z,19.50
2022-10-06T17:02:18.848Z,19.30
2022-10-06T17:04:24.886Z,19.40
2022-10-06T17:06:26.584Z,19.30
2022-10-06T17:08:28.220Z,19.30
2022-10-06T17:10:29.848Z,19.20
2022-10-06T17:12:31.486Z,19.20
2022-10-06T17:14:34.659Z,19.10
2022-10-06T17:16:37.917Z,19.10
2022-10-06T17:18:39.815Z,19.10
2022-10-06T17:20:41.428Z,19.00
2022-10-06T17:22:43.186Z,19.00
2022-10-06T17:24:44.807Z,18.90
2022-10-06T17:26:48.026Z,18.90
2022-10-06T17:28:50.943Z,18.90
2022-10-06T17:30:53.095Z,18.80
2022-10-06T17:32:55.066Z,18.80
2022-10-06T17:34:56.771Z,18.70
2022-10-06T17:36:59.060Z,18.70
2022-10-06T17:39:01.871Z,18.60
2022-10-06T17:41:07.624Z,18.60
2022-10-06T17:43:09.260Z,18.60
2022-10-06T17:45:10.927Z,18.50
2022-10-06T17:47:12.626Z,18.50
2022-10-06T17:49:15.601Z,18.40
2022-10-06T17:51:18.325Z,18.40
2022-10-06T17:53:20.074Z,18.40
2022-10-06T17:55:22.583Z,18.30
2022-10-06T17:57:24.286Z,18.30
2022-10-06T17:59:30.696Z,18.30
2022-10-06T18:01:34.045Z,18.20
2022-10-06T18:03:39.312Z,18.20
2022-10-06T18:05:41.033Z,18.20
2022-10-06T18:07:42.716Z,18.20
2022-10-06T18:10:04.388Z,18.10
2022-10-06T18:12:07.842Z,18.10
2022-10-06T18:14:13.566Z,18.00
2022-10-06T18:16:17.526Z,18.00
2022-10-06T18:18:25.139Z,17.90
2022-10-06T18:20:29.971Z,17.90
2022-10-06T18:22:31.913Z,17.90
2022-10-06T18:24:33.602Z,17.80
2022-10-06T18:26:40.551Z,17.80
2022-10-06T18:28:42.342Z,17.80
2022-10-06T18:30:49.285Z,17.70
2022-10-06T18:37:35.133Z,17.60
2022-10-06T18:39:36.840Z,17.60
2022-10-06T18:41:40.801Z,17.60
2022-10-06T18:43:43.165Z,17.50
2022-10-06T18:46:03.629Z,17.50
2022-10-06T18:48:23.943Z,17.50
2022-10-06T18:50:25.617Z,17.50
2022-10-06T18:52:27.295Z,17.40
2022-10-06T18:54:31.771Z,17.40
2022-10-06T18:56:35.400Z,17.40
2022-10-06T18:58:39.592Z,17.30
2022-10-06T19:00:41.210Z,17.30
2022-10-06T19:02:46.179Z,17.30
2022-10-06T19:04:50.177Z,17.30
2022-10-06T19:06:52.860Z,17.20
2022-10-06T19:09:00.278Z,17.20
2022-10-06T19:11:21.420Z,17.20
2022-10-06T19:13:24.182Z,17.20
2022-10-06T19:15:25.848Z,17.10
2022-10-06T19:17:27.862Z,17.10
2022-10-06T19:19:30.029Z,17.10
2022-10-06T19:21:31.671Z,17.10
2022-10-06T19:23:33.999Z,17.10
2022-10-06T19:25:35.637Z,17.00
2022-10-06T19:27:37.324Z,17.00
2022-10-06T19:29:41.357Z,17.00
2022-10-06T19:31:44.169Z,17.00
2022-10-06T19:33:47.126Z,17.00
2022-10-06T19:35:50.707Z,16.90
2022-10-06T19:37:52.344Z,16.90
2022-10-06T19:39:54.154Z,17.00
2022-10-06T19:42:14.549Z,16.90
2022-10-06T19:44:16.254Z,16.90
2022-10-06T19:46:18.326Z,16.80
2022-10-06T19:48:20.188Z,16.80
2022-10-06T19:50:21.998Z,16.80
2022-10-06T19:52:23.747Z,16.80
2022-10-06T19:54:27.761Z,16.80
2022-10-06T19:56:30.178Z,16.80
2022-10-06T19:58:32.273Z,16.80
2022-10-06T20:00:33.956Z,16.70
2022-10-06T20:02:39.866Z,16.70
2022-10-06T20:04:45.276Z,16.70
2022-10-06T20:06:47.233Z,16.70
2022-10-06T20:08:49.547Z,16.70
2022-10-06T20:10:51.204Z,16.60
2022-10-06T20:12:52.878Z,16.70
2022-10-06T20:14:54.781Z,16.60
2022-10-06T20:16:57.377Z,16.60
2022-10-06T20:18:59.100Z,16.60
2022-10-06T20:21:00.725Z,16.60
2022-10-06T20:23:02.359Z,16.60
2022-10-06T20:25:07.013Z,16.60
2022-10-06T20:27:08.959Z,16.50
2022-10-06T20:29:11.667Z,16.50
2022-10-06T20:31:16.574Z,16.50
2022-10-06T20:33:18.419Z,16.50
2022-10-06T20:35:20.067Z,16.50
2022-10-06T20:37:21.719Z,16.50
2022-10-06T20:39:42.071Z,16.50
2022-10-06T20:41:43.959Z,16.40
2022-10-06T20:43:45.694Z,16.40
2022-10-06T20:45:48.862Z,16.40
2022-10-06T20:47:50.863Z,16.40
2022-10-06T20:49:55.075Z,16.40
2022-10-06T20:51:56.840Z,16.40
2022-10-06T20:53:59.085Z,16.30
2022-10-06T20:56:01.478Z,16.30
2022-10-06T20:58:03.095Z,16.30
2022-10-06T21:00:04.961Z,16.30
2022-10-06T21:02:06.719Z,16.30
2022-10-06T21:04:09.135Z,16.30
2022-10-06T21:06:11.214Z,16.30
2022-10-06T21:08:12.891Z,16.20
2022-10-06T21:10:14.587Z,16.20
2022-10-06T21:12:16.240Z,16.20
2022-10-06T21:14:18.101Z,16.20
2022-10-06T21:16:23.985Z,16.20
2022-10-06T21:18:28.769Z,16.20
2022-10-06T21:20:30.668Z,16.20
2022-10-06T21:22:32.374Z,16.10
2022-10-06T21:24:34.007Z,16.20
2022-10-06T21:26:35.788Z,16.10
2022-10-06T21:28:38.355Z,16.10
2022-10-06T21:30:40.142Z,16.10
2022-10-06T21:32:42.422Z,16.10
2022-10-06T21:34:44.053Z,16.10
2022-10-06T21:36:45.689Z,16.10
2022-10-06T21:38:48.519Z,16.10
2022-10-06T21:40:50.174Z,16.10
2022-10-06T21:42:51.796Z,16.00
2022-10-06T21:44:53.438Z,16.00
2022-10-06T21:46:55.513Z,16.00
2022-10-06T21:48:58.173Z,16.00
2022-10-06T21:50:59.755Z,16.00
2022-10-06T21:53:01.438Z,16.00
2022-10-06T21:55:03.222Z,16.00
2022-10-06T21:57:04.854Z,16.00
2022-10-06T21:59:06.933Z,16.00
2022-10-06T22:01:11.084Z,16.00
2022-10-06T22:03:12.813Z,16.00
2022-10-06T22:05:14.485Z,16.00
2022-10-06T22:07:16.104Z,16.00
2022-10-06T22:09:18.458Z,16.00
2022-10-06T22:11:21.304Z,16.00
2022-10-06T22:13:22.883Z,16.00
2022-10-06T22:15:24.535Z,16.00
2022-10-06T22:17:26.784Z,15.90
2022-10-06T22:19:28.381Z,16.00
2022-10-06T22:21:33.874Z,15.90
2022-10-06T22:23:35.461Z,16.00
2022-10-06T22:25:37.075Z,15.90
2022-10-06T22:27:38.691Z,15.90
2022-10-06T22:29:40.304Z,15.90
2022-10-06T22:31:42.886Z,15.90
2022-10-06T22:33:44.925Z,15.90
2022-10-06T22:35:50.563Z,15.90
2022-10-06T22:37:52.137Z,15.90
2022-10-06T22:39:53.742Z,15.90
2022-10-06T22:41:55.331Z,15.90
2022-10-06T22:43:58.076Z,15.90
2022-10-06T22:46:00.035Z,15.90
2022-10-06T22:48:01.631Z,15.90
2022-10-06T22:50:03.374Z,15.90
2022-10-06T22:52:04.967Z,15.90
2022-10-06T22:54:06.600Z,15.90
2022-10-06T22:56:08.185Z,15.90
2022-10-06T22:58:10.053Z,15.90
2022-10-06T23:00:11.988Z,15.90
2022-10-06T23:02:13.590Z,15.90
2022-10-06T23:04:15.150Z,15.90
2022-10-06T23:06:17.396Z,15.90
2022-10-06T23:08:19.017Z,16.00
2022-10-06T23:10:21.381Z,16.00
2022-10-06T23:12:23.133Z,16.00
2022-10-06T23:14:24.760Z,16.00
2022-10-06T23:16:26.489Z,16.00
2022-10-06T23:18:28.127Z,16.00
2022-10-06T23:20:29.781Z,16.00
2022-10-06T23:22:31.405Z,16.00
2022-10-06T23:24:33.030Z,16.00
2022-10-06T23:26:34.633Z,16.00
2022-10-06T23:28:36.764Z,16.00
2022-10-06T23:30:38.395Z,16.00
2022-10-06T23:32:40.824Z,16.00
2022-10-06T23:34:42.416Z,16.00
2022-10-06T23:36:44.003Z,16.00
2022-10-06T23:38:46.010Z,15.90
2022-10-06T23:40:47.592Z,16.00
2022-10-06T23:42:49.227Z,15.90
2022-10-06T23:44:50.815Z,15.90
2022-10-06T23:46:52.585Z,15.90
2022-10-06T23:48:54.218Z,15.90
2022-10-06T23:51:00.000Z,15.90
2022-10-06T23:53:01.588Z,15.90
2022-10-06T23:55:03.373Z,15.90
2022-10-06T23:57:04.942Z,15.90
2022-10-06T23:59:06.521Z,15.80
